Flight Track Log - Related Links

Times and Time Zones

All times are in EDT time to prevent confusion due to time zone crossing. See the N941QS flight status page for this flight to view local times or setup timezone preferences in your user account.

Time Position Orientation Groundspeed Altitude Reporting Facility
EDT Latitude Longitude Course Direction KTS MPH feet Rate Location/Type
Tue 05:12:39 PM 41.8000 -87.7333 323° Northwest 182 209 1,800  Level Chicago TRACON
Tue 05:13:39 PM 41.8500 -87.7833 323° Northwest 264 304 3,100 1,467 Climbing Chicago TRACON
Tue 05:14:09 PM 41.8303 -87.8378 244° Southwest 265 305 4,000 1,826 Climbing Chicago Center
Tue 05:15:11 PM 41.8006 -87.9272 246° West 266 306 5,900 3,048 Climbing Chicago Center
Tue 05:16:13 PM 41.7889 -88.0308 261° West 265 305 10,300 3,290 Climbing Chicago Center
Tue 05:17:15 PM 41.7886 -88.1358 270° West 290 334 12,700 2,274 Climbing Chicago Center
Tue 05:18:17 PM 41.7903 -88.2686 271° West 333 383 15,000 2,256 Climbing Chicago Center
Tue 05:19:20 PM 41.7922 -88.4028 271° West 359 413 17,400 2,304 Climbing Chicago Center
Tue 05:20:22 PM 41.7936 -88.5325 271° West 367 422 19,800 2,323 Climbing Chicago Center
Tue 05:21:24 PM 41.7956 -88.6767 271° West 386 444 22,200 2,613 Climbing Chicago Center
Tue 05:22:26 PM 41.7906 -88.8567 268° West 406 467 25,200 2,661 Climbing Chicago Center
Tue 05:23:28 PM 41.7714 -89.0097 261° West 419 482 27,700 2,246 Climbing Chicago Center
Tue 05:25:17 PM 41.7044 -89.2908 252° West 459 528 31,600 1,509 Climbing Kansas City Center
Tue 05:26:19 PM 41.6439 -89.4544 244° Southwest 486 559 32,000 1,424 Climbing Kansas City Center
Tue 05:27:36 PM 41.5556 -89.6919 244° Southwest 516 594 34,900 1,839 Climbing Chicago Center
Tue 05:29:25 PM 41.4258 -89.9783 239° Southwest 506 582 37,700 1,000 Climbing Kansas City Center
Tue 05:30:42 PM 41.3389 -90.1608 238° Southwest 501 577 38,000 129 Climbing Chicago Center
Tue 05:31:44 PM 41.2664 -90.3142 238° Southwest 499 574 38,000  Level Chicago Center
Tue 05:32:46 PM 41.1761 -90.5036 238° Southwest 504 580 38,000  Level Chicago Center
Tue 05:34:35 PM 41.0431 -90.7756 237° Southwest 491 565 38,000  Level Kansas City Center
Tue 05:35:37 PM 40.9697 -90.9233 237° Southwest 486 559 38,000  Level Kansas City Center
Tue 05:36:39 PM 40.8992 -91.0694 237° Southwest 479 551 38,000  Level Kansas City Center
Tue 05:38:44 PM 40.7444 -91.3822 249° West 478 550 38,000  Level Kansas City Center
Tue 05:39:46 PM 40.6719 -91.5303 237° Southwest 480 552 38,000  Level Kansas City Center
Tue 05:41:03 PM 40.5817 -91.7094 236° Southwest 489 563 38,000  Level Chicago Center
Tue 05:42:06 PM 40.4919 -91.8892 237° Southwest 490 564 38,000  Level Chicago Center
Tue 05:44:10 PM 40.3422 -92.1872 237° Southwest 491 565 38,000  Level Chicago Center
Tue 05:44:56 PM 40.2822 -92.3058 236° Southwest 491 565 38,000  Level Kansas City Center
Tue 05:45:58 PM 40.2061 -92.4556 236° Southwest 490 564 38,000  Level Kansas City Center
Tue 05:48:18 PM 40.0575 -92.7931 240° Southwest 483 556 38,000  Level Chicago Center
Tue 05:49:04 PM 40.0094 -92.9172 243° Southwest 484 557 38,000  Level Kansas City Center
Tue 05:50:06 PM 39.9486 -93.0736 243° Southwest 484 557 38,000  Level Kansas City Center
Tue 05:51:08 PM 39.8769 -93.2600 243° Southwest 484 557 38,000  Level Kansas City Center
Tue 05:52:11 PM 39.8150 -93.4136 242° Southwest 484 557 38,000  Level Kansas City Center
Tue 05:54:15 PM 39.6842 -93.7506 243° Southwest 484 557 38,000  Level Kansas City Center
Tue 05:55:17 PM 39.6222 -93.9061 243° Southwest 485 558 38,000  Level Kansas City Center
Tue 05:56:19 PM 39.5533 -94.0575 239° Southwest 485 558 38,000 -1,081 Level Kansas City Center
Tue 06:01:29 PM 39.1689 -94.9081 237° Southwest 543 625 31,300 -1,323 Descending Kansas City Center
Tue 06:02:31 PM 39.0972 -95.0650 240° Southwest 514 592 29,800 -1,500 Descending Kansas City Center
Tue 06:03:33 PM 39.0211 -95.2325 240° Southwest 511 588 28,200 -1,548 Descending Kansas City Center
Tue 06:04:35 PM 38.9492 -95.3878 239° Southwest 502 578 26,600 -1,548 Descending Kansas City Center
Tue 06:05:00 PM 39.0392 -95.1751 241° Southwest  Level FlightAware Approximate
Tue 06:05:37 PM 38.8750 -95.5450 239° Southwest 480 552 25,000  Level Kansas City Center
Tue 06:07:42 PM 38.7453 -95.8233 237° Southwest 459 528 24,000 -321 Descending Kansas City Center
Tue 06:08:44 PM 38.6778 -95.9689 239° Southwest 461 531 24,000 -798 Level Kansas City Center
Tue 06:11:50 PM 38.4603 -96.4236 218° Southwest 482 555 20,700 -1,113 Descending Kansas City Center
Tue 06:12:52 PM 38.4019 -96.5453 239° Southwest 483 556 19,400 -1,452 Descending Kansas City Center
Tue 06:13:54 PM 38.3200 -96.7139 238° Southwest 470 541 17,700 -1,548 Descending Kansas City Center
Tue 06:14:56 PM 38.2519 -96.8525 238° Southwest 466 536 16,200 -1,421 Descending Kansas City Center
Tue 06:15:10 PM 38.2344 -96.8903 239° Southwest 458 527 15,900 -1,452 Descending Kansas City Center
Tue 06:15:58 PM 38.1831 -96.9858 236° Southwest 457 526 14,700 -1,473 Descending Kansas City Center
Tue 06:17:00 PM 38.1524 -96.9809 218° Southwest  Level FlightAware Approximate
Tue 06:17:00 PM 38.1008 -97.0967 227° Southwest 433 498 13,200  Level Kansas City Center
Tue 06:17:12 PM 38.0739 -97.1344 228° Southwest 420 483 12,700 -1,545 Descending Kansas City Center
Tue 06:18:06 PM 38.0067 -97.2194 225° Southwest 407 468 11,500 -1,339 Descending Kansas City Center
Tue 06:19:04 PM 37.9161 -97.2447 192° South 407 468 10,200 -1,453 Descending Kansas City Center
Tue 06:20:14 PM 37.7961 -97.2792 193° South 303 349 8,400 -1,694 Descending Kansas City Center
Tue 06:21:08 PM 37.7261 -97.2986 192° South 303 349 6,700 -1,759 Descending Kansas City Center
Tue 06:22:10 PM 37.6511 -97.3203 193° South 283 326 5,000 -467 Descending Kansas City Center
Tue 06:25:12 PM 37.4614 -97.4000 202° Southwest 240 276 4,800 -238 Descending Kansas City Center
Tue 06:27:13 PM 37.5139 -97.4869 307° West 188 216 3,800 -658 Descending Kansas City Center
Tue 06:29:09 PM 37.5983 -97.4475 20° North 154 177 2,200 -773 Descending Kansas City Center
Tue 06:29:25 PM 37.6064 -97.4403 35° Northeast 175 201 2,100 -600 Descending Kansas City Center
Tue 06:30:09 PM 37.6303 -97.4319 15° North 114 131 1,600 -484 Descending Kansas City Center
Tue 06:30:27 PM 37.6403 -97.4256 27° Northeast 147 169 1,600  Level Kansas City Center

Login

Don't have an account? Register now (free) for customized features, flight alerts, and more!